Time;durP1;ratioP1;P1;durP2;ratioP2;P2;SDS_P1;SDS_P2;PMS_P1;PMS_P2;Temp;Humidity;BMP_temperature;BMP_pressure;BME280_temperature;BME280_humidity;BME280_pressure;Samples;Min_cycle;Max_cycle;Signal;HPM_P1;HPM_P2
2024/01/18 00:01:38;;;;;;;;;;;;;;;-4.86;100.00;98440.66;5049431;28;19921;-80
2024/01/18 00:04:11;;;;;;;;;;;;;;;-4.90;100.00;98439.50;5059406;28;19932;-80
2024/01/18 00:06:39;;;;;;;;;;;;;;;-4.93;100.00;98442.59;5049104;28;19931;-80
2024/01/18 00:09:08;;;;;;;;;;;;;;;-4.90;100.00;98441.34;5042643;28;19931;-79
2024/01/18 00:11:36;;;;;;;;;;;;;;;-4.93;100.00;98444.47;5059392;28;20540;-80
2024/01/18 00:14:09;;;;;;;;;;;;;;;-4.94;100.00;98443.66;5061139;28;19925;-80
2024/01/18 00:16:42;;;;;;;;;;;;;;;-4.84;100.00;98446.53;5053295;28;19920;-80
2024/01/18 00:19:10;;;;;;;;;;;;;;;-4.89;100.00;98449.06;5064466;28;19920;-80
2024/01/18 00:21:38;;;;;;;;;;;;;;;-4.80;100.00;98449.53;5062629;28;19944;-81
2024/01/18 00:24:12;;;;;;;;;;;;;;;-4.77;100.00;98451.69;5047109;28;19959;-80
2024/01/18 00:26:45;;;;;;;;;;;;;;;-4.77;100.00;98454.34;5052124;28;20286;-80
2024/01/18 00:29:13;;;;;;;;;;;;;;;-4.87;100.00;98462.13;5065910;28;20546;-81
2024/01/18 00:31:41;;;;;;;;;;;;;;;-4.87;100.00;98467.41;5061716;28;19925;-80
2024/01/18 00:34:14;;;;;;;;;;;;;;;-4.92;100.00;98473.41;5061407;28;19936;-80
2024/01/18 00:36:42;;;;;;;;;;;;;;;-4.90;100.00;98474.00;5061656;28;19924;-79
2024/01/18 00:39:11;;;;;;;;;;;;;;;-4.79;100.00;98472.38;5042397;28;19931;-80
2024/01/18 00:41:45;;;;;;;;;;;;;;;-4.79;100.00;98483.78;5049795;28;19920;-79
2024/01/18 00:44:13;;;;;;;;;;;;;;;-4.89;100.00;98482.75;5041722;28;19928;-80
2024/01/18 00:46:41;;;;;;;;;;;;;;;-4.92;100.00;98476.06;5049427;28;19924;-80
2024/01/18 00:49:14;;;;;;;;;;;;;;;-4.98;100.00;98479.66;5060934;28;19932;-80
2024/01/18 00:51:47;;;;;;;;;;;;;;;-4.87;100.00;98488.66;5046703;28;20412;-80
2024/01/18 00:54:20;;;;;;;;;;;;;;;-4.86;100.00;98493.72;5065371;28;19928;-80
2024/01/18 00:56:54;;;;;;;;;;;;;;;-4.93;100.00;98495.66;5063500;28;19924;-80
2024/01/18 00:59:22;;;;;;;;;;;;;;;-4.85;100.00;98505.91;5063212;28;19924;-80
2024/01/18 01:01:55;;;;;;;;;;;;;;;-4.90;100.00;98513.78;5049934;28;20404;-80
2024/01/18 01:04:23;;;;;;;;;;;;;;;-4.84;100.00;98507.53;5059752;28;20281;-80
2024/01/18 01:06:56;;;;;;;;;;;;;;;-4.81;100.00;98524.84;5063364;28;20264;-80
2024/01/18 01:09:29;;;;;;;;;;;;;;;-4.82;100.00;98525.88;5062968;28;19925;-81
2024/01/18 01:12:03;;;;;;;;;;;;;;;-4.72;100.00;98522.63;5064365;28;19931;-80
2024/01/18 01:14:36;;;;;;;;;;;;;;;-4.75;100.00;98531.91;5042493;28;19924;-80
2024/01/18 01:17:04;;;;;;;;;;;;;;;-4.80;100.00;98537.88;5056200;28;19924;-80
2024/01/18 01:19:32;;;;;;;;;;;;;;;-4.73;100.00;98544.94;5073866;28;19931;-80
2024/01/18 01:22:05;;;;;;;;;;;;;;;-4.79;100.00;98539.50;5060783;28;19932;-81
2024/01/18 01:24:38;;;;;;;;;;;;;;;-4.81;100.00;98538.91;5063086;28;20708;-80
2024/01/18 01:27:12;;;;;;;;;;;;;;;-4.71;100.00;98534.88;5047207;28;19924;-80
2024/01/18 01:29:40;;;;;;;;;;;;;;;-4.66;100.00;98542.94;5053036;28;19920;-80
2024/01/18 01:32:13;;;;;;;;;;;;;;;-4.66;100.00;98557.03;5055549;28;20372;-80
2024/01/18 01:34:41;;;;;;;;;;;;;;;-4.67;100.00;98552.78;5050716;28;19924;-80
2024/01/18 01:37:14;;;;;;;;;;;;;;;-4.73;100.00;98566.97;5062108;28;19931;-80
2024/01/18 01:39:42;;;;;;;;;;;;;;;-4.61;100.00;98567.75;5048933;28;20453;-80
2024/01/18 01:42:12;;;;;;;;;;;;;;;-4.52;100.00;98562.88;5078328;28;19940;-79
2024/01/18 01:44:40;;;;;;;;;;;;;;;-4.55;100.00;98560.69;5048400;28;19925;-80
2024/01/18 01:47:13;;;;;;;;;;;;;;;-4.61;100.00;98577.56;5063178;28;20376;-80
2024/01/18 01:49:41;;;;;;;;;;;;;;;-4.67;100.00;98568.69;5052787;28;20373;-80
2024/01/18 01:52:09;;;;;;;;;;;;;;;-4.74;100.00;98578.59;5048675;28;19925;-80
2024/01/18 01:54:42;;;;;;;;;;;;;;;-4.73;100.00;98577.56;5049673;28;19920;-80
2024/01/18 01:57:17;;;;;;;;;;;;;;;-4.71;100.00;98577.34;5063871;28;19924;-80
2024/01/18 01:59:51;;;;;;;;;;;;;;;-4.69;100.00;98576.06;5073658;28;19932;-80
2024/01/18 02:02:22;;;;;;;;;;;;;;;-4.75;100.00;98579.66;5048908;28;19920;-80
2024/01/18 02:04:55;;;;;;;;;;;;;;;-4.70;100.00;98579.75;5060281;28;19932;-79
2024/01/18 02:07:29;;;;;;;;;;;;;;;-4.70;100.00;98578.97;5051691;28;19928;-80
2024/01/18 02:09:57;;;;;;;;;;;;;;;-4.73;100.00;98576.78;5062827;28;19924;-80
2024/01/18 02:12:32;;;;;;;;;;;;;;;-4.73;100.00;98587.38;5065162;28;20003;-80
2024/01/18 02:15:06;;;;;;;;;;;;;;;-4.76;100.00;98591.31;5059680;28;19931;-80
2024/01/18 02:17:38;;;;;;;;;;;;;;;-4.75;100.00;98594.75;5057688;28;19924;-79
2024/01/18 02:20:12;;;;;;;;;;;;;;;-4.83;100.00;98602.03;5064141;28;19924;-80
2024/01/18 02:22:45;;;;;;;;;;;;;;;-4.74;100.00;98607.00;5060119;28;19925;-80
2024/01/18 02:25:20;;;;;;;;;;;;;;;-4.74;100.00;98607.78;5058771;28;19943;-80
2024/01/18 02:27:54;;;;;;;;;;;;;;;-4.72;100.00;98620.81;5075380;28;19925;-80
2024/01/18 02:30:22;;;;;;;;;;;;;;;-4.74;100.00;98620.25;5043559;28;19924;-80
2024/01/18 02:32:55;;;;;;;;;;;;;;;-4.71;100.00;98623.28;5062416;28;19925;-80
2024/01/18 02:35:23;;;;;;;;;;;;;;;-4.72;100.00;98626.13;5047653;28;19925;-80
2024/01/18 02:37:51;;;;;;;;;;;;;;;-4.74;100.00;98631.69;5049941;28;19927;-81
2024/01/18 02:40:20;;;;;;;;;;;;;;;-4.82;100.00;98632.84;5075210;28;19931;-80
2024/01/18 02:42:48;;;;;;;;;;;;;;;-4.67;100.00;98631.56;5048813;28;19931;-79
2024/01/18 02:45:22;;;;;;;;;;;;;;;-4.67;100.00;98636.88;5044720;28;20377;-80
2024/01/18 02:47:50;;;;;;;;;;;;;;;-4.66;100.00;98634.00;5076003;28;19927;-80
2024/01/18 02:50:18;;;;;;;;;;;;;;;-4.63;100.00;98627.41;5060547;28;19943;-80
2024/01/18 02:52:46;;;;;;;;;;;;;;;-4.66;100.00;98623.38;5060724;28;19943;-80
2024/01/18 02:55:19;;;;;;;;;;;;;;;-4.73;100.00;98625.34;5048115;28;20586;-80
2024/01/18 02:57:53;;;;;;;;;;;;;;;-4.72;100.00;98628.78;5041035;28;19920;-79
2024/01/18 03:00:26;;;;;;;;;;;;;;;-4.68;100.00;98621.97;5057533;28;19932;-80
2024/01/18 03:02:54;;;;;;;;;;;;;;;-4.64;100.00;98623.13;5061005;28;19939;-80
2024/01/18 03:05:27;;;;;;;;;;;;;;;-4.67;100.00;98624.44;5047627;28;19927;-80
2024/01/18 03:08:00;;;;;;;;;;;;;;;-4.79;100.00;98632.38;5041889;28;20381;-80
2024/01/18 03:10:33;;;;;;;;;;;;;;;-4.84;100.00;98629.59;5057901;28;19924;-80
2024/01/18 03:13:07;;;;;;;;;;;;;;;-4.91;100.00;98638.72;5075870;28;19925;-80
2024/01/18 03:15:40;;;;;;;;;;;;;;;-4.96;100.00;98642.03;5058581;28;19938;-80
2024/01/18 03:18:08;;;;;;;;;;;;;;;-5.03;100.00;98639.50;5046367;28;19928;-80
2024/01/18 03:20:41;;;;;;;;;;;;;;;-5.07;100.00;98633.03;5041634;28;19927;-80
2024/01/18 03:23:16;;;;;;;;;;;;;;;-5.03;100.00;98634.19;5061104;28;20376;-81
2024/01/18 03:25:49;;;;;;;;;;;;;;;-5.12;100.00;98635.56;5041468;28;20411;-80
2024/01/18 03:28:23;;;;;;;;;;;;;;;-5.13;100.00;98640.03;5060857;28;19924;-80
2024/01/18 03:30:56;;;;;;;;;;;;;;;-5.25;100.00;98641.88;5043002;28;19928;-80
2024/01/18 03:33:29;;;;;;;;;;;;;;;-5.36;100.00;98638.16;5061225;28;19931;-80
2024/01/18 03:35:58;;;;;;;;;;;;;;;-5.30;100.00;98647.84;5049408;28;19927;-80
2024/01/18 03:38:31;;;;;;;;;;;;;;;-5.37;100.00;98644.50;5062139;28;19935;-80
2024/01/18 03:40:58;;;;;;;;;;;;;;;-5.23;100.00;98650.41;5049244;28;19932;-80
2024/01/18 03:43:28;;;;;;;;;;;;;;;-5.32;100.00;98647.28;5074609;28;20436;-80
2024/01/18 03:45:56;;;;;;;;;;;;;;;-5.33;100.00;98650.97;5058216;28;19924;-80
2024/01/18 03:48:24;;;;;;;;;;;;;;;-5.59;100.00;98656.63;5060423;28;19920;-80
2024/01/18 03:50:52;;;;;;;;;;;;;;;-5.52;100.00;98658.16;5059085;28;19920;-81
2024/01/18 03:53:20;;;;;;;;;;;;;;;-5.50;100.00;98649.97;5046609;28;19936;-80
2024/01/18 03:55:53;;;;;;;;;;;;;;;-5.32;100.00;98649.94;5052903;28;19936;-81
2024/01/18 03:58:21;;;;;;;;;;;;;;;-5.32;100.00;98649.94;5064129;28;19932;-80
2024/01/18 04:00:55;;;;;;;;;;;;;;;-5.20;100.00;98649.94;5062795;28;19931;-80
2024/01/18 04:03:28;;;;;;;;;;;;;;;-5.17;100.00;98651.34;5051074;28;19924;-80
2024/01/18 04:06:01;;;;;;;;;;;;;;;-5.29;100.00;98656.59;5052208;28;19924;-80
2024/01/18 04:08:34;;;;;;;;;;;;;;;-5.26;100.00;98652.69;5065420;28;19925;-80
2024/01/18 04:11:07;;;;;;;;;;;;;;;-5.38;100.00;98650.03;5065495;28;20376;-80
2024/01/18 04:13:40;;;;;;;;;;;;;;;-5.48;100.00;98663.81;5065890;28;19924;-81
2024/01/18 04:16:14;;;;;;;;;;;;;;;-5.53;100.00;98661.84;5064797;28;20391;-80
2024/01/18 04:18:42;;;;;;;;;;;;;;;-5.56;100.00;98666.78;5052210;28;20405;-80
2024/01/18 04:21:15;;;;;;;;;;;;;;;-5.44;100.00;98654.41;5064040;28;19932;-80
2024/01/18 04:23:43;;;;;;;;;;;;;;;-5.32;100.00;98662.38;5079926;28;20180;-80
2024/01/18 04:26:11;;;;;;;;;;;;;;;-5.49;100.00;98664.84;5063665;28;19921;-80
2024/01/18 04:28:44;;;;;;;;;;;;;;;-5.51;100.00;98670.38;5050916;28;19924;-81
2024/01/18 04:31:14;;;;;;;;;;;;;;;-5.52;100.00;98670.63;5052238;28;19931;-80
2024/01/18 04:33:47;;;;;;;;;;;;;;;-5.49;100.00;98681.56;5051300;28;19925;-80
2024/01/18 04:36:14;;;;;;;;;;;;;;;-5.49;100.00;98676.25;5065458;28;19920;-80
2024/01/18 04:38:47;;;;;;;;;;;;;;;-5.42;100.00;98678.03;5045413;28;19927;-80
2024/01/18 04:41:15;;;;;;;;;;;;;;;-5.47;100.00;98682.16;5062898;28;20401;-80
2024/01/18 04:43:48;;;;;;;;;;;;;;;-5.47;100.00;98678.69;5044714;28;19920;-81
2024/01/18 04:46:23;;;;;;;;;;;;;;;-5.33;100.00;98666.88;5062238;28;19931;-81
2024/01/18 04:48:56;;;;;;;;;;;;;;;-5.37;100.00;98670.19;5064360;28;19921;-81
2024/01/18 04:51:29;;;;;;;;;;;;;;;-5.40;100.00;98673.28;5065773;28;19931;-82
2024/01/18 04:54:01;;;;;;;;;;;;;;;-5.36;100.00;98672.63;5050242;28;19939;-81
2024/01/18 04:56:37;;;;;;;;;;;;;;;-5.38;100.00;98668.59;5051976;28;19932;-82
2024/01/18 04:59:10;;;;;;;;;;;;;;;-5.35;100.00;98676.09;5051540;28;19932;-81
2024/01/18 05:01:47;;;;;;;;;;;;;;;-5.51;100.00;98678.34;5065203;28;19927;-82
2024/01/18 05:04:20;;;;;;;;;;;;;;;-5.45;100.00;98689.88;5050218;28;19925;-82
2024/01/18 05:06:53;;;;;;;;;;;;;;;-5.71;100.00;98691.81;5053621;28;20285;-82
2024/01/18 05:09:21;;;;;;;;;;;;;;;-5.77;100.00;98695.38;5064835;28;19928;-82
2024/01/18 05:11:48;;;;;;;;;;;;;;;-5.74;100.00;98694.13;5062881;28;19931;-81
2024/01/18 05:14:22;;;;;;;;;;;;;;;-5.61;100.00;98693.16;5064659;28;20285;-82
2024/01/18 05:17:03;;;;;;;;;;;;;;;-5.68;100.00;98696.66;5057327;28;20470;-81
2024/01/18 05:19:31;;;;;;;;;;;;;;;-5.74;100.00;98699.44;5065166;28;19928;-81
2024/01/18 05:22:04;;;;;;;;;;;;;;;-5.94;100.00;98702.28;5064784;28;19920;-81
2024/01/18 05:24:32;;;;;;;;;;;;;;;-6.00;100.00;98714.59;5064878;28;19920;-82
2024/01/18 05:27:05;;;;;;;;;;;;;;;-5.97;100.00;98713.38;5046676;28;19935;-81
2024/01/18 05:29:33;;;;;;;;;;;;;;;-6.16;100.00;98714.16;5068766;28;20360;-82
2024/01/18 05:32:08;;;;;;;;;;;;;;;-6.34;100.00;98717.59;5048388;28;19920;-82
2024/01/18 05:34:41;;;;;;;;;;;;;;;-6.46;100.00;98718.50;5060647;28;19924;-82
2024/01/18 05:37:14;;;;;;;;;;;;;;;-6.47;100.00;98728.28;5064765;28;19931;-81
2024/01/18 05:39:42;;;;;;;;;;;;;;;-6.45;100.00;98723.56;5068038;28;19928;-81
2024/01/18 05:42:10;;;;;;;;;;;;;;;-6.53;100.00;98732.63;5062831;28;19925;-82
2024/01/18 05:44:38;;;;;;;;;;;;;;;-6.55;100.00;98729.34;5053631;28;19931;-81
2024/01/18 05:47:12;;;;;;;;;;;;;;;-6.59;100.00;98730.03;5062424;28;20288;-81
2024/01/18 05:49:40;;;;;;;;;;;;;;;-6.63;100.00;98729.63;5060950;28;19925;-80
2024/01/18 05:52:13;;;;;;;;;;;;;;;-6.60;100.00;98731.88;5045154;28;19921;-81
2024/01/18 05:54:46;;;;;;;;;;;;;;;-6.64;100.00;98733.31;5060716;28;19929;-82
2024/01/18 05:57:14;;;;;;;;;;;;;;;-6.61;100.00;98737.38;5079553;28;19920;-82
2024/01/18 05:59:47;;;;;;;;;;;;;;;-6.62;100.00;98746.31;5061146;28;19920;-81
2024/01/18 06:02:16;;;;;;;;;;;;;;;-6.67;100.00;98749.59;5048944;28;19921;-82
2024/01/18 06:04:49;;;;;;;;;;;;;;;-6.79;100.00;98748.66;5076854;28;19966;-81
2024/01/18 06:07:17;;;;;;;;;;;;;;;-6.90;100.00;98752.84;5063456;28;19927;-82
2024/01/18 06:09:45;;;;;;;;;;;;;;;-6.97;100.00;98760.81;5061306;28;20376;-82
2024/01/18 06:12:20;;;;;;;;;;;;;;;-7.01;100.00;98771.00;5075858;28;19928;-81
2024/01/18 06:14:47;;;;;;;;;;;;;;;-6.97;100.00;98774.03;5062235;28;20583;-81
2024/01/18 06:17:22;;;;;;;;;;;;;;;-6.73;100.00;98769.00;5049755;28;19931;-81
2024/01/18 06:19:50;;;;;;;;;;;;;;;-6.80;100.00;98776.97;5049976;28;19931;-81
2024/01/18 06:22:23;;;;;;;;;;;;;;;-6.72;100.00;98768.78;5048443;28;19932;-81
2024/01/18 06:24:51;;;;;;;;;;;;;;;-6.58;100.00;98769.50;5052614;28;19924;-82
2024/01/18 06:27:23;;;;;;;;;;;;;;;-6.36;100.00;98779.72;5063254;28;19925;-81
2024/01/18 06:29:57;;;;;;;;;;;;;;;-6.16;100.00;98779.53;5049967;28;19928;-81
2024/01/18 06:32:31;;;;;;;;;;;;;;;-6.09;100.00;98779.47;5065059;28;19924;-80
2024/01/18 06:35:05;;;;;;;;;;;;;;;-6.04;100.00;98788.38;5051398;28;19920;-81
2024/01/18 06:37:38;;;;;;;;;;;;;;;-5.99;100.00;98783.25;5078528;28;19920;-81
2024/01/18 06:40:07;;;;;;;;;;;;;;;-5.94;100.00;98782.56;5041376;28;19924;-81
2024/01/18 06:42:40;;;;;;;;;;;;;;;-6.15;100.00;98789.91;5048517;28;19924;-81
2024/01/18 06:45:09;;;;;;;;;;;;;;;-6.16;100.00;98800.72;5065974;28;19920;-81
2024/01/18 06:47:43;;;;;;;;;;;;;;;-6.00;100.00;98808.09;5063269;28;19924;-80
2024/01/18 06:50:13;;;;;;;;;;;;;;;-5.95;100.00;98807.44;5057018;28;19924;-81
2024/01/18 06:52:46;;;;;;;;;;;;;;;-5.91;100.00;98811.28;5064255;28;20312;-81
2024/01/18 06:55:19;;;;;;;;;;;;;;;-5.92;100.00;98807.00;5045857;28;20285;-82
2024/01/18 06:57:48;;;;;;;;;;;;;;;-5.82;100.00;98807.28;5062063;28;19925;-81
2024/01/18 07:00:23;;;;;;;;;;;;;;;-5.73;100.00;98812.31;5047773;28;19925;-81
2024/01/18 07:02:57;;;;;;;;;;;;;;;-5.82;100.00;98825.03;5058703;28;19931;-82
2024/01/18 07:05:25;;;;;;;;;;;;;;;-5.72;100.00;98827.19;5047091;28;19934;-81
2024/01/18 07:07:58;;;;;;;;;;;;;;;-5.80;100.00;98822.97;5059495;28;19921;-81
2024/01/18 07:10:31;;;;;;;;;;;;;;;-5.72;100.00;98827.19;5062994;28;19920;-81
2024/01/18 07:13:04;;;;;;;;;;;;;;;-5.68;100.00;98823.06;5061329;28;19936;-81
2024/01/18 07:15:32;;;;;;;;;;;;;;;-5.90;100.00;98820.03;5049081;28;19925;-82
2024/01/18 07:18:07;;;;;;;;;;;;;;;-6.02;100.00;98833.19;5065076;28;19924;-81
2024/01/18 07:20:40;;;;;;;;;;;;;;;-5.92;100.00;98838.78;5045111;28;19929;-82
2024/01/18 07:23:13;;;;;;;;;;;;;;;-6.00;100.00;98845.19;5063198;28;19947;-82
2024/01/18 07:25:46;;;;;;;;;;;;;;;-6.01;100.00;98840.94;5059353;28;19924;-82
2024/01/18 07:28:14;;;;;;;;;;;;;;;-6.03;100.00;98842.97;5048250;28;19936;-82
2024/01/18 07:30:47;;;;;;;;;;;;;;;-6.09;100.00;98841.22;5060291;28;19947;-80
2024/01/18 07:33:17;;;;;;;;;;;;;;;-5.97;100.00;98835.19;5061049;28;19931;-81
2024/01/18 07:35:50;;;;;;;;;;;;;;;-5.97;100.00;98835.19;5049385;28;19924;-82
2024/01/18 07:38:24;;;;;;;;;;;;;;;-5.93;100.00;98841.66;5061698;28;19927;-80
2024/01/18 07:40:57;;;;;;;;;;;;;;;-5.92;100.00;98838.78;5044535;28;19920;-82
2024/01/18 07:43:25;;;;;;;;;;;;;;;-5.86;100.00;98842.41;5039503;28;19924;-80
2024/01/18 07:45:58;;;;;;;;;;;;;;;-5.93;100.00;98852.25;5062697;28;19924;-83
2024/01/18 07:48:32;;;;;;;;;;;;;;;-5.94;100.00;98848.78;5042194;28;19928;-82
2024/01/18 07:51:00;;;;;;;;;;;;;;;-5.92;100.00;98856.50;5047040;28;19924;-80
2024/01/18 07:53:33;;;;;;;;;;;;;;;-5.96;100.00;98865.94;5058251;28;19936;-80
2024/01/18 07:56:01;;;;;;;;;;;;;;;-6.02;100.00;98872.91;5041428;28;19924;-80
2024/01/18 07:58:34;;;;;;;;;;;;;;;-6.04;100.00;98878.44;5045661;28;19924;-80
2024/01/18 08:01:07;;;;;;;;;;;;;;;-5.84;100.00;98882.72;5055954;28;19928;-80
2024/01/18 08:03:41;;;;;;;;;;;;;;;-5.88;100.00;98871.75;5045526;28;19931;-80
2024/01/18 08:06:11;;;;;;;;;;;;;;;-5.90;100.00;98870.34;5074608;28;20738;-80
2024/01/18 08:08:40;;;;;;;;;;;;;;;-5.85;100.00;98886.41;5058407;28;19980;-80
2024/01/18 08:11:13;;;;;;;;;;;;;;;-5.77;100.00;98885.31;5040221;28;20428;-79
2024/01/18 08:13:46;;;;;;;;;;;;;;;-5.72;100.00;98880.97;5044754;28;19928;-80
2024/01/18 08:16:14;;;;;;;;;;;;;;;-5.71;100.00;98887.09;5049098;28;19928;-80
2024/01/18 08:18:49;;;;;;;;;;;;;;;-5.74;100.00;98891.00;5048119;28;19924;-80
2024/01/18 08:21:17;;;;;;;;;;;;;;;-5.58;100.00;98896.75;5066102;28;19924;-80
2024/01/18 08:23:50;;;;;;;;;;;;;;;-5.53;100.00;98900.38;5021428;28;21873;-79
2024/01/18 08:26:23;;;;;;;;;;;;;;;-5.47;100.00;98907.47;5010466;28;21058;-79
2024/01/18 08:28:51;;;;;;;;;;;;;;;-5.46;100.00;98906.44;5025097;28;20292;-80
2024/01/18 08:31:24;;;;;;;;;;;;;;;-5.39;100.00;98913.50;5032573;28;19943;-81
2024/01/18 08:33:58;;;;;;;;;;;;;;;-5.30;100.00;98913.00;5059841;28;19929;-80
2024/01/18 08:36:26;;;;;;;;;;;;;;;-5.30;100.00;98915.66;5040974;28;19928;-80
2024/01/18 08:38:55;;;;;;;;;;;;;;;-5.31;100.00;98911.38;5045738;28;19928;-81
2024/01/18 08:41:23;;;;;;;;;;;;;;;-5.24;100.00;98913.16;5026837;28;19936;-79
2024/01/18 08:43:56;;;;;;;;;;;;;;;-5.19;100.00;98908.00;5023330;28;20428;-81
2024/01/18 08:46:29;;;;;;;;;;;;;;;-5.19;100.00;98914.13;5060027;28;19931;-81
2024/01/18 08:49:03;;;;;;;;;;;;;;;-5.19;100.00;98916.78;5049599;28;19928;-81
2024/01/18 08:51:31;;;;;;;;;;;;;;;-5.13;100.00;98917.75;5045707;28;19924;-81
2024/01/18 08:54:06;;;;;;;;;;;;;;;-5.09;100.00;98929.53;5047256;28;20544;-81
2024/01/18 08:56:35;;;;;;;;;;;;;;;-4.97;100.00;98925.09;5021467;28;19932;-80
2024/01/18 08:59:08;;;;;;;;;;;;;;;-4.98;100.00;98926.13;5022952;28;19928;-80
2024/01/18 09:01:36;;;;;;;;;;;;;;;-4.95;100.00;98933.66;5023145;28;19935;-80
2024/01/18 09:04:05;;;;;;;;;;;;;;;-4.89;100.00;98939.91;5052505;28;19935;-81
2024/01/18 09:06:39;;;;;;;;;;;;;;;-4.84;100.00;98942.72;5025159;28;20444;-81
2024/01/18 09:09:13;;;;;;;;;;;;;;;-4.83;100.00;98946.19;5023476;28;19935;-81
2024/01/18 09:11:46;;;;;;;;;;;;;;;-4.72;100.00;98940.13;5029133;28;19924;-79
2024/01/18 09:14:19;;;;;;;;;;;;;;;-4.69;100.00;98939.69;5040143;28;19935;-81
2024/01/18 09:16:48;;;;;;;;;;;;;;;-4.75;100.00;98947.72;5053723;28;19929;-81
2024/01/18 09:19:17;;;;;;;;;;;;;;;-4.69;100.00;98949.50;5044626;28;19928;-80
2024/01/18 09:21:50;;;;;;;;;;;;;;;-4.62;100.00;98950.22;5020976;28;20941;-79
2024/01/18 09:24:23;;;;;;;;;;;;;;;-4.59;100.00;98956.94;5011500;28;19928;-80
2024/01/18 09:26:51;;;;;;;;;;;;;;;-4.58;100.00;98953.22;5015869;28;19936;-80
2024/01/18 09:29:19;;;;;;;;;;;;;;;-4.62;100.00;98964.31;5035416;28;19928;-81
2024/01/18 09:31:53;;;;;;;;;;;;;;;-4.56;100.00;98975.88;5010810;28;20639;-80
2024/01/18 09:34:23;;;;;;;;;;;;;;;-4.46;100.00;98983.31;5017435;28;20607;-80
2024/01/18 09:36:57;;;;;;;;;;;;;;;-4.45;100.00;98985.75;5016417;28;19928;-80
2024/01/18 09:39:24;;;;;;;;;;;;;;;-4.51;100.00;98991.94;5020348;28;19962;-81
2024/01/18 09:41:58;;;;;;;;;;;;;;;-4.47;100.00;98993.13;5023990;28;19924;-80
2024/01/18 09:44:29;;;;;;;;;;;;;;;-4.42;100.00;98994.31;5026118;28;19928;-81
2024/01/18 09:47:03;;;;;;;;;;;;;;;-4.36;100.00;98993.44;5041373;28;19935;-81
2024/01/18 09:49:33;;;;;;;;;;;;;;;-4.29;100.00;98999.47;5046368;28;19932;-80
2024/01/18 09:52:01;;;;;;;;;;;;;;;-4.24;100.00;99006.75;5022018;28;20404;-81
2024/01/18 09:54:34;;;;;;;;;;;;;;;-4.22;100.00;99013.47;5023324;28;19928;-81
2024/01/18 09:57:01;;;;;;;;;;;;;;;-4.12;100.00;99019.03;5050199;28;19935;-81
2024/01/18 09:59:29;;;;;;;;;;;;;;;-4.08;100.00;99019.41;5040738;28;19935;-81
2024/01/18 10:01:58;;;;;;;;;;;;;;;-4.01;100.00;99017.47;5021849;28;20010;-80
2024/01/18 10:04:27;;;;;;;;;;;;;;;-3.98;100.00;99019.69;5056809;28;19928;-81
2024/01/18 10:06:57;;;;;;;;;;;;;;;-3.86;100.00;99021.56;5042145;28;19935;-81
2024/01/18 10:09:25;;;;;;;;;;;;;;;-3.76;100.00;99020.00;5026101;28;19932;-81
2024/01/18 10:11:53;;;;;;;;;;;;;;;-3.77;100.00;99030.84;5018932;28;20596;-81
2024/01/18 10:14:41;;;;;;;;;;;;;;;-3.69;100.00;99038.50;5044766;28;19939;-81
2024/01/18 10:17:08;;;;;;;;;;;;;;;-3.62;100.00;99033.91;5046339;28;20293;-80
2024/01/18 10:19:36;;;;;;;;;;;;;;;-3.62;100.00;99043.72;5046843;28;21410;-80
2024/01/18 10:22:07;;;;;;;;;;;;;;;-3.61;100.00;99040.81;5028209;28;19928;-81
2024/01/18 10:24:39;;;;;;;;;;;;;;;-3.59;100.00;99046.75;5015944;28;19935;-81
2024/01/18 10:27:12;;;;;;;;;;;;;;;-3.59;100.00;99048.56;5016221;28;20666;-81
2024/01/18 10:29:45;;;;;;;;;;;;;;;-3.53;100.00;99046.88;5034335;28;19936;-81
2024/01/18 10:32:18;;;;;;;;;;;;;;;-3.50;100.00;99054.41;5037076;28;19935;-81
2024/01/18 10:34:51;;;;;;;;;;;;;;;-3.46;100.00;99053.69;5036524;28;19928;-80
2024/01/18 10:37:21;;;;;;;;;;;;;;;-3.41;100.00;99053.03;5019804;28;19928;-80
2024/01/18 10:39:49;;;;;;;;;;;;;;;-3.33;100.00;99051.88;5049267;28;21304;-81
2024/01/18 10:42:23;;;;;;;;;;;;;;;-3.31;100.00;99057.78;5043247;28;19939;-80
2024/01/18 10:44:51;;;;;;;;;;;;;;;-3.21;100.00;99059.88;5017264;28;19928;-80
2024/01/18 10:47:24;;;;;;;;;;;;;;;-3.14;100.00;99064.03;5022281;28;19924;-79
2024/01/18 10:49:58;;;;;;;;;;;;;;;-3.12;100.00;99069.13;5021681;28;19928;-82
2024/01/18 10:52:28;;;;;;;;;;;;;;;-3.15;100.00;99074.94;5059060;28;19928;-82
2024/01/18 10:55:02;;;;;;;;;;;;;;;-3.08;100.00;99080.94;5048796;28;19940;-81
2024/01/18 10:57:35;;;;;;;;;;;;;;;-2.99;100.00;99086.75;5023434;28;19938;-81
2024/01/18 11:00:09;;;;;;;;;;;;;;;-2.97;100.00;99082.00;5044114;28;19928;-82
2024/01/18 11:02:39;;;;;;;;;;;;;;;-2.96;100.00;99084.44;5041132;28;20327;-81
2024/01/18 11:05:10;;;;;;;;;;;;;;;-2.96;100.00;99076.44;5043816;28;19928;-83
2024/01/18 11:07:39;;;;;;;;;;;;;;;-2.97;100.00;99089.97;5043585;28;19924;-81
2024/01/18 11:10:10;;;;;;;;;;;;;;;-2.88;100.00;99090.47;5044552;28;20003;-81
2024/01/18 11:12:39;;;;;;;;;;;;;;;-2.89;100.00;99083.53;5027217;28;19928;-80
2024/01/18 11:15:13;;;;;;;;;;;;;;;-2.84;100.00;99087.13;5042995;28;19928;-82
2024/01/18 11:17:46;;;;;;;;;;;;;;;-2.86;100.00;99094.50;5042851;28;20605;-82
2024/01/18 11:20:15;;;;;;;;;;;;;;;-2.81;100.00;99094.63;5026925;28;19936;-81
2024/01/18 11:22:49;;;;;;;;;;;;;;;-2.80;100.00;99096.25;5021482;28;19936;-81
2024/01/18 11:25:22;;;;;;;;;;;;;;;-2.70;100.00;99092.22;4995270;28;19928;-83
2024/01/18 11:27:50;;;;;;;;;;;;;;;-2.67;100.00;99095.22;5046175;28;19935;-81
2024/01/18 11:30:33;;;;;;;;;;;;;;;-2.62;100.00;99099.84;5041562;28;19924;-82
2024/01/18 11:33:07;;;;;;;;;;;;;;;-2.59;100.00;99100.19;5041381;28;19959;-81
2024/01/18 11:35:36;;;;;;;;;;;;;;;-2.47;100.00;99102.03;5043015;28;19928;-80
2024/01/18 11:38:20;;;;;;;;;;;;;;;-2.36;100.00;99111.06;5041635;28;19928;-81
2024/01/18 11:40:51;;;;;;;;;;;;;;;-2.40;100.00;99114.19;5051579;28;19928;-82
2024/01/18 11:43:24;;;;;;;;;;;;;;;-2.37;100.00;99114.78;5024498;28;19971;-82
2024/01/18 11:45:55;;;;;;;;;;;;;;;-2.28;100.00;99111.53;5045001;28;20501;-81
2024/01/18 11:48:28;;;;;;;;;;;;;;;-2.23;100.00;99121.47;5026871;28;19950;-80
2024/01/18 11:50:57;;;;;;;;;;;;;;;-2.23;100.00;99118.81;5042347;28;19928;-82
2024/01/18 11:53:26;;;;;;;;;;;;;;;-2.14;100.00;99127.25;5045478;28;19943;-81
2024/01/18 11:56:01;;;;;;;;;;;;;;;-2.01;100.00;99121.66;5019655;28;19928;-80
2024/01/18 11:58:34;;;;;;;;;;;;;;;-2.04;100.00;99122.16;5016601;28;19935;-82
2024/01/18 12:01:03;;;;;;;;;;;;;;;-2.03;100.00;99125.59;5018218;28;20618;-81
2024/01/18 12:03:31;;;;;;;;;;;;;;;-2.00;100.00;99125.13;5043713;28;19935;-83
2024/01/18 12:06:04;;;;;;;;;;;;;;;-1.90;100.00;99133.34;5021875;28;21433;-82
2024/01/18 12:08:38;;;;;;;;;;;;;;;-1.88;100.00;99131.25;5025967;28;19936;-82
2024/01/18 12:11:07;;;;;;;;;;;;;;;-1.81;100.00;99136.44;5049866;28;19932;-81
2024/01/18 12:13:40;;;;;;;;;;;;;;;-1.76;100.00;99136.56;5023962;28;19928;-81
2024/01/18 12:16:13;;;;;;;;;;;;;;;-1.68;100.00;99127.38;5029525;28;19928;-80
2024/01/18 12:18:42;;;;;;;;;;;;;;;-1.59;100.00;99133.94;5047271;28;19936;-80
2024/01/18 12:21:16;;;;;;;;;;;;;;;-1.59;100.00;99137.44;5045362;28;19939;-82
2024/01/18 12:23:54;;;;;;;;;;;;;;;-1.42;100.00;99142.00;5017170;28;20508;-81
2024/01/18 12:26:27;;;;;;;;;;;;;;;-1.37;100.00;99144.75;5014246;28;19956;-81
2024/01/18 12:28:54;;;;;;;;;;;;;;;-1.28;100.00;99159.34;5035101;28;19935;-81
2024/01/18 12:31:29;;;;;;;;;;;;;;;-1.24;100.00;99154.34;5028024;28;20451;-82
2024/01/18 12:33:57;;;;;;;;;;;;;;;-1.16;100.00;99159.31;5041933;28;19936;-80
2024/01/18 12:36:30;;;;;;;;;;;;;;;-1.12;100.00;99156.94;5019202;28;19955;-79
2024/01/18 12:38:59;;;;;;;;;;;;;;;-1.08;100.00;99160.75;5025598;28;19935;-80
2024/01/18 12:41:27;;;;;;;;;;;;;;;-1.03;100.00;99152.84;5039329;28;20443;-80
2024/01/18 12:43:55;;;;;;;;;;;;;;;-1.17;100.00;99163.00;5038899;28;19936;-80
2024/01/18 12:46:23;;;;;;;;;;;;;;;-1.15;100.00;99162.78;5025824;28;19933;-81
2024/01/18 12:48:56;;;;;;;;;;;;;;;-1.08;100.00;99163.41;5046793;28;19931;-84
2024/01/18 12:51:25;;;;;;;;;;;;;;;-1.08;100.00;99168.75;5036938;28;19924;-81
2024/01/18 12:53:53;;;;;;;;;;;;;;;-1.03;100.00;99176.88;5051867;28;19931;-79
2024/01/18 12:56:27;;;;;;;;;;;;;;;-1.06;100.00;99182.69;5037431;28;19929;-79